sensor_id;sensor_type;location;lat;lon;timestamp;pressure;altitude;pressure_sealevel;temperature;humidity
7182;BME280;3632;42.724;23.298;2022-09-30T00:00:54;95053.91;;;16.81;100.00
7182;BME280;3632;42.724;23.298;2022-09-30T00:03:21;95054.72;;;16.82;100.00
7182;BME280;3632;42.724;23.298;2022-09-30T00:05:55;95039.44;;;16.72;100.00
7182;BME280;3632;42.724;23.298;2022-09-30T00:08:22;95050.72;;;16.79;100.00
7182;BME280;3632;42.724;23.298;2022-09-30T00:10:59;95061.97;;;16.62;100.00
7182;BME280;3632;42.724;23.298;2022-09-30T00:13:26;95053.25;;;16.55;100.00
7182;BME280;3632;42.724;23.298;2022-09-30T00:15:53;95055.03;;;16.46;100.00
7182;BME280;3632;42.724;23.298;2022-09-30T00:18:19;95050.06;;;16.21;100.00
7182;BME280;3632;42.724;23.298;2022-09-30T00:20:46;95068.53;;;16.16;100.00
7182;BME280;3632;42.724;23.298;2022-09-30T00:23:13;95066.25;;;16.05;100.00
7182;BME280;3632;42.724;23.298;2022-09-30T00:25:40;95067.38;;;16.03;100.00
7182;BME280;3632;42.724;23.298;2022-09-30T00:28:08;95004.03;;;15.69;100.00
7182;BME280;3632;42.724;23.298;2022-09-30T00:30:35;95063.88;;;16.12;100.00
7182;BME280;3632;42.724;23.298;2022-09-30T00:33:02;95063.19;;;16.02;100.00
7182;BME280;3632;42.724;23.298;2022-09-30T00:35:28;95068.66;;;15.98;100.00
7182;BME280;3632;42.724;23.298;2022-09-30T00:37:55;95060.00;;;15.99;100.00
7182;BME280;3632;42.724;23.298;2022-09-30T00:40:22;95045.03;;;15.87;100.00
7182;BME280;3632;42.724;23.298;2022-09-30T00:42:48;95062.03;;;15.96;100.00
7182;BME280;3632;42.724;23.298;2022-09-30T00:45:17;95060.13;;;15.98;100.00
7182;BME280;3632;42.724;23.298;2022-09-30T00:47:49;95060.13;;;15.98;100.00
7182;BME280;3632;42.724;23.298;2022-09-30T00:50:25;95058.38;;;15.98;100.00
7182;BME280;3632;42.724;23.298;2022-09-30T00:52:58;95051.28;;;16.00;100.00
7182;BME280;3632;42.724;23.298;2022-09-30T00:55:32;95054.03;;;15.99;100.00
7182;BME280;3632;42.724;23.298;2022-09-30T00:58:03;94853.56;;;14.76;100.00
7182;BME280;3632;42.724;23.298;2022-09-30T01:00:32;95046.81;;;16.03;100.00
7182;BME280;3632;42.724;23.298;2022-09-30T01:03:00;95046.16;;;16.09;100.00
7182;BME280;3632;42.724;23.298;2022-09-30T01:05:27;95048.25;;;16.13;100.00
7182;BME280;3632;42.724;23.298;2022-09-30T01:07:59;95058.25;;;16.08;100.00
7182;BME280;3632;42.724;23.298;2022-09-30T01:10:27;95039.59;;;16.14;100.00
7182;BME280;3632;42.724;23.298;2022-09-30T01:12:54;95053.88;;;16.17;100.00
7182;BME280;3632;42.724;23.298;2022-09-30T01:15:28;95055.19;;;16.21;100.00
7182;BME280;3632;42.724;23.298;2022-09-30T01:18:06;95053.25;;;16.23;100.00
7182;BME280;3632;42.724;23.298;2022-09-30T01:21:00;95060.97;;;16.15;100.00
7182;BME280;3632;42.724;23.298;2022-09-30T01:23:56;95067.72;;;16.16;100.00
7182;BME280;3632;42.724;23.298;2022-09-30T01:26:41;95070.91;;;16.18;100.00
7182;BME280;3632;42.724;23.298;2022-09-30T01:29:40;95071.25;;;16.15;100.00
7182;BME280;3632;42.724;23.298;2022-09-30T01:32:17;95070.44;;;16.14;100.00
7182;BME280;3632;42.724;23.298;2022-09-30T01:34:52;95069.28;;;16.09;100.00
7182;BME280;3632;42.724;23.298;2022-09-30T01:37:32;95066.56;;;16.02;100.00
7182;BME280;3632;42.724;23.298;2022-09-30T01:40:08;95062.06;;;16.04;100.00
7182;BME280;3632;42.724;23.298;2022-09-30T01:42:52;95060.28;;;15.96;100.00
7182;BME280;3632;42.724;23.298;2022-09-30T01:45:30;95063.19;;;15.93;100.00
7182;BME280;3632;42.724;23.298;2022-09-30T01:48:01;95040.00;;;15.69;100.00
7182;BME280;3632;42.724;23.298;2022-09-30T01:50:37;95059.44;;;15.72;100.00
7182;BME280;3632;42.724;23.298;2022-09-30T01:53:14;95057.66;;;15.64;100.00
7182;BME280;3632;42.724;23.298;2022-09-30T01:55:49;94972.31;;;15.02;100.00
7182;BME280;3632;42.724;23.298;2022-09-30T01:58:21;95070.16;;;15.67;100.00
7182;BME280;3632;42.724;23.298;2022-09-30T02:00:55;95068.56;;;15.66;100.00
7182;BME280;3632;42.724;23.298;2022-09-30T02:03:28;95064.22;;;15.67;100.00
7182;BME280;3632;42.724;23.298;2022-09-30T02:06:00;95064.53;;;15.64;100.00
7182;BME280;3632;42.724;23.298;2022-09-30T02:08:30;95059.56;;;15.62;100.00
7182;BME280;3632;42.724;23.298;2022-09-30T02:11:04;95062.78;;;15.64;100.00
7182;BME280;3632;42.724;23.298;2022-09-30T02:13:37;95064.41;;;15.65;100.00
7182;BME280;3632;42.724;23.298;2022-09-30T02:16:07;95070.53;;;15.80;100.00
7182;BME280;3632;42.724;23.298;2022-09-30T02:18:42;95077.44;;;15.80;100.00
7182;BME280;3632;42.724;23.298;2022-09-30T02:21:14;95075.31;;;15.67;100.00
7182;BME280;3632;42.724;23.298;2022-09-30T02:23:43;95057.38;;;15.49;100.00
7182;BME280;3632;42.724;23.298;2022-09-30T02:26:15;95017.88;;;15.00;100.00
7182;BME280;3632;42.724;23.298;2022-09-30T02:28:46;95080.00;;;15.46;100.00
7182;BME280;3632;42.724;23.298;2022-09-30T02:31:15;95075.53;;;15.48;100.00
7182;BME280;3632;42.724;23.298;2022-09-30T02:33:48;95084.44;;;15.62;100.00
7182;BME280;3632;42.724;23.298;2022-09-30T02:36:19;95082.53;;;15.64;100.00
7182;BME280;3632;42.724;23.298;2022-09-30T02:38:56;95073.88;;;15.65;100.00
7182;BME280;3632;42.724;23.298;2022-09-30T02:41:26;95077.06;;;15.67;100.00
7182;BME280;3632;42.724;23.298;2022-09-30T02:43:55;95075.00;;;15.70;100.00
7182;BME280;3632;42.724;23.298;2022-09-30T02:46:29;95074.22;;;15.70;100.00
7182;BME280;3632;42.724;23.298;2022-09-30T02:49:03;95088.16;;;15.67;100.00
7182;BME280;3632;42.724;23.298;2022-09-30T02:51:38;95083.22;;;15.74;100.00
7182;BME280;3632;42.724;23.298;2022-09-30T02:54:14;95083.03;;;15.75;100.00
7182;BME280;3632;42.724;23.298;2022-09-30T02:56:49;95086.94;;;15.87;100.00
7182;BME280;3632;42.724;23.298;2022-09-30T02:59:19;95084.81;;;15.83;100.00
7182;BME280;3632;42.724;23.298;2022-09-30T03:01:47;95085.13;;;15.72;100.00
7182;BME280;3632;42.724;23.298;2022-09-30T03:04:18;95090.78;;;15.49;100.00
7182;BME280;3632;42.724;23.298;2022-09-30T03:06:46;95102.38;;;15.53;100.00
7182;BME280;3632;42.724;23.298;2022-09-30T03:09:13;95102.28;;;15.63;100.00
7182;BME280;3632;42.724;23.298;2022-09-30T03:11:40;95103.75;;;15.66;100.00
7182;BME280;3632;42.724;23.298;2022-09-30T03:14:19;95100.03;;;15.68;100.00
7182;BME280;3632;42.724;23.298;2022-09-30T03:17:06;95098.31;;;15.77;100.00
7182;BME280;3632;42.724;23.298;2022-09-30T03:19:52;94982.72;;;14.93;100.00
7182;BME280;3632;42.724;23.298;2022-09-30T03:22:46;95092.81;;;15.38;100.00
7182;BME280;3632;42.724;23.298;2022-09-30T03:25:24;95089.78;;;15.42;100.00
7182;BME280;3632;42.724;23.298;2022-09-30T03:28:03;95089.66;;;15.44;100.00
7182;BME280;3632;42.724;23.298;2022-09-30T03:30:41;95100.38;;;15.39;100.00
7182;BME280;3632;42.724;23.298;2022-09-30T03:33:17;95075.63;;;15.30;100.00
7182;BME280;3632;42.724;23.298;2022-09-30T03:35:57;95096.53;;;15.43;100.00
7182;BME280;3632;42.724;23.298;2022-09-30T03:38:33;95101.09;;;15.24;100.00
7182;BME280;3632;42.724;23.298;2022-09-30T03:41:07;95092.81;;;15.04;100.00
7182;BME280;3632;42.724;23.298;2022-09-30T03:43:38;95062.53;;;14.64;100.00
7182;BME280;3632;42.724;23.298;2022-09-30T03:46:13;95097.13;;;15.03;100.00
7182;BME280;3632;42.724;23.298;2022-09-30T03:48:43;95115.63;;;15.15;100.00
7182;BME280;3632;42.724;23.298;2022-09-30T03:51:13;95122.44;;;15.24;100.00
7182;BME280;3632;42.724;23.298;2022-09-30T03:53:42;95124.53;;;15.29;100.00
7182;BME280;3632;42.724;23.298;2022-09-30T03:56:11;95115.81;;;15.14;100.00
7182;BME280;3632;42.724;23.298;2022-09-30T03:58:41;95121.59;;;15.16;100.00
7182;BME280;3632;42.724;23.298;2022-09-30T04:01:16;95130.00;;;15.26;100.00
7182;BME280;3632;42.724;23.298;2022-09-30T04:03:46;95132.88;;;15.23;100.00
7182;BME280;3632;42.724;23.298;2022-09-30T04:06:14;95133.78;;;15.14;100.00
7182;BME280;3632;42.724;23.298;2022-09-30T04:08:40;95138.44;;;14.92;100.00
7182;BME280;3632;42.724;23.298;2022-09-30T04:11:08;95100.91;;;14.91;100.00
7182;BME280;3632;42.724;23.298;2022-09-30T04:13:35;95123.66;;;15.12;100.00
7182;BME280;3632;42.724;23.298;2022-09-30T04:16:02;95117.47;;;15.23;100.00
7182;BME280;3632;42.724;23.298;2022-09-30T04:18:29;95117.78;;;15.28;100.00
7182;BME280;3632;42.724;23.298;2022-09-30T04:20:57;95116.81;;;15.21;100.00
7182;BME280;3632;42.724;23.298;2022-09-30T04:23:25;95125.13;;;15.15;100.00
7182;BME280;3632;42.724;23.298;2022-09-30T04:25:52;95129.00;;;15.19;100.00
7182;BME280;3632;42.724;23.298;2022-09-30T04:28:19;95118.09;;;15.25;100.00
7182;BME280;3632;42.724;23.298;2022-09-30T04:30:45;95129.09;;;15.35;100.00
7182;BME280;3632;42.724;23.298;2022-09-30T04:33:12;95130.94;;;15.25;100.00
7182;BME280;3632;42.724;23.298;2022-09-30T04:35:39;95128.38;;;15.25;100.00
7182;BME280;3632;42.724;23.298;2022-09-30T04:38:05;95131.66;;;15.35;100.00
7182;BME280;3632;42.724;23.298;2022-09-30T04:40:36;95141.13;;;15.34;100.00
7182;BME280;3632;42.724;23.298;2022-09-30T04:43:03;95149.22;;;15.22;100.00
7182;BME280;3632;42.724;23.298;2022-09-30T04:45:30;95152.06;;;15.11;100.00
7182;BME280;3632;42.724;23.298;2022-09-30T04:47:57;95136.19;;;15.15;100.00
7182;BME280;3632;42.724;23.298;2022-09-30T04:50:23;95150.03;;;15.48;100.00
7182;BME280;3632;42.724;23.298;2022-09-30T04:52:50;95156.31;;;15.53;100.00
7182;BME280;3632;42.724;23.298;2022-09-30T04:55:17;95159.41;;;15.57;100.00
7182;BME280;3632;42.724;23.298;2022-09-30T04:57:45;95174.06;;;15.65;100.00
7182;BME280;3632;42.724;23.298;2022-09-30T05:00:12;95169.78;;;15.73;100.00
7182;BME280;3632;42.724;23.298;2022-09-30T05:02:41;95169.72;;;15.65;100.00
7182;BME280;3632;42.724;23.298;2022-09-30T05:05:08;95164.59;;;15.65;100.00
7182;BME280;3632;42.724;23.298;2022-09-30T05:07:35;95158.31;;;15.42;100.00
7182;BME280;3632;42.724;23.298;2022-09-30T05:10:02;95167.50;;;15.44;100.00
7182;BME280;3632;42.724;23.298;2022-09-30T05:12:29;95170.97;;;15.35;100.00
7182;BME280;3632;42.724;23.298;2022-09-30T05:14:57;95186.72;;;15.40;100.00
7182;BME280;3632;42.724;23.298;2022-09-30T05:17:24;95190.41;;;15.38;100.00
7182;BME280;3632;42.724;23.298;2022-09-30T05:19:51;95200.03;;;15.36;100.00
7182;BME280;3632;42.724;23.298;2022-09-30T05:22:18;95195.13;;;15.25;100.00
7182;BME280;3632;42.724;23.298;2022-09-30T05:24:44;95185.66;;;15.25;100.00
7182;BME280;3632;42.724;23.298;2022-09-30T05:27:11;95176.81;;;15.20;100.00
7182;BME280;3632;42.724;23.298;2022-09-30T05:29:38;95191.16;;;15.30;100.00
7182;BME280;3632;42.724;23.298;2022-09-30T05:32:06;95190.31;;;15.22;100.00
7182;BME280;3632;42.724;23.298;2022-09-30T05:34:33;95187.38;;;15.17;100.00
7182;BME280;3632;42.724;23.298;2022-09-30T05:37:00;95195.41;;;14.96;100.00
7182;BME280;3632;42.724;23.298;2022-09-30T05:39:26;95211.09;;;14.93;100.00
7182;BME280;3632;42.724;23.298;2022-09-30T05:41:55;95211.03;;;14.67;100.00
7182;BME280;3632;42.724;23.298;2022-09-30T05:44:21;95212.00;;;14.84;100.00
7182;BME280;3632;42.724;23.298;2022-09-30T05:46:48;95218.56;;;14.86;100.00
7182;BME280;3632;42.724;23.298;2022-09-30T05:49:16;95221.44;;;14.83;100.00
7182;BME280;3632;42.724;23.298;2022-09-30T05:51:43;95216.75;;;14.96;100.00
7182;BME280;3632;42.724;23.298;2022-09-30T05:54:10;95223.06;;;15.02;100.00
7182;BME280;3632;42.724;23.298;2022-09-30T05:56:37;95223.94;;;15.11;100.00
7182;BME280;3632;42.724;23.298;2022-09-30T05:59:04;95208.81;;;15.07;100.00
7182;BME280;3632;42.724;23.298;2022-09-30T06:01:30;95221.69;;;15.16;100.00
7182;BME280;3632;42.724;23.298;2022-09-30T06:03:57;95218.09;;;15.26;100.00
7182;BME280;3632;42.724;23.298;2022-09-30T06:06:25;95219.78;;;15.35;100.00
7182;BME280;3632;42.724;23.298;2022-09-30T06:08:52;95224.50;;;15.48;100.00
7182;BME280;3632;42.724;23.298;2022-09-30T06:11:20;95227.81;;;15.58;100.00
7182;BME280;3632;42.724;23.298;2022-09-30T06:13:49;95168.25;;;15.37;100.00
7182;BME280;3632;42.724;23.298;2022-09-30T06:16:17;95227.34;;;15.88;100.00
7182;BME280;3632;42.724;23.298;2022-09-30T06:18:43;95229.16;;;16.04;100.00
7182;BME280;3632;42.724;23.298;2022-09-30T06:21:12;95227.50;;;16.21;100.00
7182;BME280;3632;42.724;23.298;2022-09-30T06:23:41;95168.72;;;16.00;100.00
7182;BME280;3632;42.724;23.298;2022-09-30T06:26:10;95241.97;;;16.38;100.00
7182;BME280;3632;42.724;23.298;2022-09-30T06:28:38;95227.56;;;16.45;100.00
7182;BME280;3632;42.724;23.298;2022-09-30T06:31:05;95250.25;;;16.50;100.00
7182;BME280;3632;42.724;23.298;2022-09-30T06:33:32;95246.94;;;16.65;100.00
7182;BME280;3632;42.724;23.298;2022-09-30T06:36:00;95256.25;;;16.66;100.00
7182;BME280;3632;42.724;23.298;2022-09-30T06:38:29;95231.75;;;16.54;100.00
7182;BME280;3632;42.724;23.298;2022-09-30T06:40:59;95258.06;;;16.32;100.00
7182;BME280;3632;42.724;23.298;2022-09-30T06:43:25;95258.53;;;16.27;100.00
7182;BME280;3632;42.724;23.298;2022-09-30T06:45:52;95269.66;;;16.36;100.00
7182;BME280;3632;42.724;23.298;2022-09-30T06:48:19;95271.56;;;16.34;100.00
7182;BME280;3632;42.724;23.298;2022-09-30T06:50:47;95272.56;;;16.41;100.00
7182;BME280;3632;42.724;23.298;2022-09-30T06:53:20;95279.81;;;16.45;100.00
7182;BME280;3632;42.724;23.298;2022-09-30T06:55:47;95298.13;;;16.42;100.00
7182;BME280;3632;42.724;23.298;2022-09-30T06:58:15;95290.44;;;16.51;100.00
7182;BME280;3632;42.724;23.298;2022-09-30T07:00:42;95291.69;;;16.46;100.00
7182;BME280;3632;42.724;23.298;2022-09-30T07:03:22;95288.56;;;16.61;100.00
7182;BME280;3632;42.724;23.298;2022-09-30T07:05:56;95252.59;;;16.35;100.00
7182;BME280;3632;42.724;23.298;2022-09-30T07:08:24;95285.22;;;16.68;100.00
7182;BME280;3632;42.724;23.298;2022-09-30T07:10:54;95305.25;;;16.57;100.00
7182;BME280;3632;42.724;23.298;2022-09-30T07:13:22;95303.19;;;16.60;100.00
7182;BME280;3632;42.724;23.298;2022-09-30T07:15:49;95290.59;;;16.49;100.00
7182;BME280;3632;42.724;23.298;2022-09-30T07:18:18;95311.25;;;16.57;100.00
7182;BME280;3632;42.724;23.298;2022-09-30T07:20:49;95306.13;;;16.73;100.00
7182;BME280;3632;42.724;23.298;2022-09-30T07:23:16;95279.50;;;16.49;100.00
7182;BME280;3632;42.724;23.298;2022-09-30T07:25:50;95315.47;;;16.40;100.00
7182;BME280;3632;42.724;23.298;2022-09-30T07:28:18;95312.03;;;16.24;100.00
7182;BME280;3632;42.724;23.298;2022-09-30T07:30:46;95314.56;;;16.16;100.00
7182;BME280;3632;42.724;23.298;2022-09-30T07:33:13;95316.38;;;16.23;100.00
7182;BME280;3632;42.724;23.298;2022-09-30T07:35:49;95301.63;;;16.33;100.00
7182;BME280;3632;42.724;23.298;2022-09-30T07:38:17;95311.59;;;16.62;100.00
7182;BME280;3632;42.724;23.298;2022-09-30T07:40:51;95312.97;;;16.57;100.00
7182;BME280;3632;42.724;23.298;2022-09-30T07:43:19;95285.31;;;16.17;100.00
7182;BME280;3632;42.724;23.298;2022-09-30T07:45:47;95328.34;;;16.40;100.00
7182;BME280;3632;42.724;23.298;2022-09-30T07:48:16;95311.94;;;16.33;100.00
7182;BME280;3632;42.724;23.298;2022-09-30T07:51:03;95329.66;;;16.44;100.00
7182;BME280;3632;42.724;23.298;2022-09-30T07:53:29;95308.56;;;16.41;100.00
7182;BME280;3632;42.724;23.298;2022-09-30T07:56:01;95325.97;;;16.55;100.00
7182;BME280;3632;42.724;23.298;2022-09-30T07:58:28;95305.84;;;16.42;100.00
7182;BME280;3632;42.724;23.298;2022-09-30T08:00:56;95314.50;;;16.67;100.00
7182;BME280;3632;42.724;23.298;2022-09-30T08:03:23;95330.38;;;17.13;100.00
7182;BME280;3632;42.724;23.298;2022-09-30T08:05:50;95324.28;;;17.46;100.00
7182;BME280;3632;42.724;23.298;2022-09-30T08:08:16;95331.41;;;17.76;100.00
7182;BME280;3632;42.724;23.298;2022-09-30T08:10:43;95299.81;;;17.74;100.00
7182;BME280;3632;42.724;23.298;2022-09-30T08:13:10;95338.09;;;18.26;100.00
7182;BME280;3632;42.724;23.298;2022-09-30T08:15:38;95331.06;;;18.51;100.00
7182;BME280;3632;42.724;23.298;2022-09-30T08:18:06;95338.56;;;18.77;100.00
7182;BME280;3632;42.724;23.298;2022-09-30T08:20:33;95344.00;;;18.90;100.00
7182;BME280;3632;42.724;23.298;2022-09-30T08:23:00;95336.22;;;18.98;100.00
7182;BME280;3632;42.724;23.298;2022-09-30T08:25:26;95340.72;;;19.27;100.00
7182;BME280;3632;42.724;23.298;2022-09-30T08:27:53;95352.28;;;19.47;100.00
7182;BME280;3632;42.724;23.298;2022-09-30T08:30:20;95342.94;;;19.60;100.00
7182;BME280;3632;42.724;23.298;2022-09-30T08:32:47;95355.25;;;19.58;100.00
7182;BME280;3632;42.724;23.298;2022-09-30T08:35:15;95360.28;;;19.75;100.00
7182;BME280;3632;42.724;23.298;2022-09-30T08:37:42;95360.22;;;19.83;99.34
7182;BME280;3632;42.724;23.298;2022-09-30T08:40:17;95351.47;;;20.06;98.46
7182;BME280;3632;42.724;23.298;2022-09-30T08:42:59;95353.53;;;20.11;98.59
7182;BME280;3632;42.724;23.298;2022-09-30T08:45:36;95345.75;;;20.26;98.22
7182;BME280;3632;42.724;23.298;2022-09-30T08:48:19;95351.59;;;20.42;95.91
7182;BME280;3632;42.724;23.298;2022-09-30T08:50:54;95307.41;;;20.29;97.90
7182;BME280;3632;42.724;23.298;2022-09-30T08:53:28;95353.19;;;20.73;95.49
7182;BME280;3632;42.724;23.298;2022-09-30T08:55:57;95356.81;;;20.93;95.65
7182;BME280;3632;42.724;23.298;2022-09-30T08:58:28;95358.50;;;21.15;95.70
7182;BME280;3632;42.724;23.298;2022-09-30T09:00:58;95337.41;;;21.18;95.00
7182;BME280;3632;42.724;23.298;2022-09-30T09:03:27;95363.00;;;21.64;92.58
7182;BME280;3632;42.724;23.298;2022-09-30T09:06:05;95360.56;;;21.83;92.89
7182;BME280;3632;42.724;23.298;2022-09-30T09:08:46;95367.94;;;22.01;92.64
7182;BME280;3632;42.724;23.298;2022-09-30T09:11:22;95371.22;;;22.10;91.14
7182;BME280;3632;42.724;23.298;2022-09-30T09:13:59;95371.09;;;22.24;88.27
7182;BME280;3632;42.724;23.298;2022-09-30T09:16:31;95372.19;;;22.37;87.91
7182;BME280;3632;42.724;23.298;2022-09-30T09:19:03;95342.03;;;22.36;87.46
7182;BME280;3632;42.724;23.298;2022-09-30T09:21:44;95370.38;;;22.65;84.93
7182;BME280;3632;42.724;23.298;2022-09-30T09:24:18;95369.16;;;22.95;86.16
7182;BME280;3632;42.724;23.298;2022-09-30T09:26:46;95367.25;;;23.23;85.16
7182;BME280;3632;42.724;23.298;2022-09-30T09:29:31;95351.84;;;23.29;81.73
7182;BME280;3632;42.724;23.298;2022-09-30T09:32:10;95375.19;;;23.63;81.22
7182;BME280;3632;42.724;23.298;2022-09-30T09:34:39;95376.81;;;23.97;81.22
7182;BME280;3632;42.724;23.298;2022-09-30T09:37:14;95370.81;;;24.09;78.30
7182;BME280;3632;42.724;23.298;2022-09-30T09:39:59;95363.41;;;24.39;78.35
7182;BME280;3632;42.724;23.298;2022-09-30T09:42:50;95361.34;;;24.61;75.28
7182;BME280;3632;42.724;23.298;2022-09-30T09:45:26;95366.88;;;24.91;74.40
7182;BME280;3632;42.724;23.298;2022-09-30T09:47:54;95354.63;;;24.98;69.24
7182;BME280;3632;42.724;23.298;2022-09-30T09:50:28;95332.50;;;25.14;72.05
7182;BME280;3632;42.724;23.298;2022-09-30T09:53:15;95353.56;;;25.57;68.00
7182;BME280;3632;42.724;23.298;2022-09-30T09:55:47;95343.41;;;25.73;68.46
7182;BME280;3632;42.724;23.298;2022-09-30T09:58:14;95345.81;;;26.00;65.36
7182;BME280;3632;42.724;23.298;2022-09-30T10:00:42;95347.31;;;26.14;57.77
7182;BME280;3632;42.724;23.298;2022-09-30T10:03:27;95342.13;;;26.32;58.24
7182;BME280;3632;42.724;23.298;2022-09-30T10:06:03;95349.94;;;26.57;56.12
7182;BME280;3632;42.724;23.298;2022-09-30T10:08:33;95343.81;;;26.26;50.39
7182;BME280;3632;42.724;23.298;2022-09-30T10:11:02;95307.31;;;26.13;50.35
7182;BME280;3632;42.724;23.298;2022-09-30T10:13:30;95344.06;;;26.79;51.29
7182;BME280;3632;42.724;23.298;2022-09-30T10:15:59;95335.22;;;26.99;50.27
7182;BME280;3632;42.724;23.298;2022-09-30T10:18:29;95346.19;;;27.07;45.51
7182;BME280;3632;42.724;23.298;2022-09-30T10:20:58;95338.13;;;26.91;44.60
7182;BME280;3632;42.724;23.298;2022-09-30T10:23:29;95270.34;;;26.53;44.23
7182;BME280;3632;42.724;23.298;2022-09-30T10:26:00;95338.00;;;26.86;44.62
7182;BME280;3632;42.724;23.298;2022-09-30T10:28:30;95341.31;;;26.93;45.42
7182;BME280;3632;42.724;23.298;2022-09-30T10:31:01;95335.28;;;26.92;43.66
7182;BME280;3632;42.724;23.298;2022-09-30T10:33:33;95290.75;;;26.26;42.57
7182;BME280;3632;42.724;23.298;2022-09-30T10:36:04;95337.03;;;26.80;43.04
7182;BME280;3632;42.724;23.298;2022-09-30T10:38:33;95329.81;;;26.75;43.13
7182;BME280;3632;42.724;23.298;2022-09-30T10:41:03;95334.88;;;27.25;42.35
7182;BME280;3632;42.724;23.298;2022-09-30T10:43:35;95340.00;;;27.20;43.11
7182;BME280;3632;42.724;23.298;2022-09-30T10:46:04;95312.75;;;27.81;42.44
7182;BME280;3632;42.724;23.298;2022-09-30T10:48:35;95315.63;;;27.91;41.39
7182;BME280;3632;42.724;23.298;2022-09-30T10:51:02;95292.38;;;27.83;39.92
7182;BME280;3632;42.724;23.298;2022-09-30T10:53:32;95327.38;;;28.00;40.54
7182;BME280;3632;42.724;23.298;2022-09-30T10:56:01;95322.38;;;28.33;39.29
7182;BME280;3632;42.724;23.298;2022-09-30T10:58:41;95311.53;;;28.18;39.62
7182;BME280;3632;42.724;23.298;2022-09-30T11:01:19;95348.69;;;28.15;38.85
7182;BME280;3632;42.724;23.298;2022-09-30T11:04:00;95321.78;;;28.08;39.74
7182;BME280;3632;42.724;23.298;2022-09-30T11:06:31;95330.66;;;28.07;40.50
7182;BME280;3632;42.724;23.298;2022-09-30T11:09:02;95323.00;;;28.05;39.99
7182;BME280;3632;42.724;23.298;2022-09-30T11:11:37;95324.94;;;27.87;40.31
7182;BME280;3632;42.724;23.298;2022-09-30T11:14:18;95319.63;;;28.05;39.95
7182;BME280;3632;42.724;23.298;2022-09-30T11:16:54;95317.59;;;28.19;39.59
7182;BME280;3632;42.724;23.298;2022-09-30T11:19:30;95317.25;;;28.15;40.35
7182;BME280;3632;42.724;23.298;2022-09-30T11:22:04;95320.97;;;28.66;39.72
7182;BME280;3632;42.724;23.298;2022-09-30T11:24:41;95330.06;;;28.98;38.90
7182;BME280;3632;42.724;23.298;2022-09-30T11:27:15;95318.34;;;28.89;37.57
7182;BME280;3632;42.724;23.298;2022-09-30T11:29:53;95323.41;;;29.07;37.73
7182;BME280;3632;42.724;23.298;2022-09-30T11:32:37;95330.81;;;29.10;38.25
7182;BME280;3632;42.724;23.298;2022-09-30T11:35:22;95315.19;;;29.15;37.61
7182;BME280;3632;42.724;23.298;2022-09-30T11:38:04;95322.47;;;29.13;38.35
7182;BME280;3632;42.724;23.298;2022-09-30T11:40:43;95310.97;;;29.42;37.48
7182;BME280;3632;42.724;23.298;2022-09-30T11:43:21;95329.03;;;29.27;37.82
7182;BME280;3632;42.724;23.298;2022-09-30T11:46:09;95323.81;;;29.56;36.37
7182;BME280;3632;42.724;23.298;2022-09-30T11:48:49;95325.50;;;29.33;36.74
7182;BME280;3632;42.724;23.298;2022-09-30T11:51:22;95317.38;;;29.80;36.98
7182;BME280;3632;42.724;23.298;2022-09-30T11:53:59;95324.22;;;29.81;36.32
7182;BME280;3632;42.724;23.298;2022-09-30T11:56:44;95319.84;;;29.70;36.70
7182;BME280;3632;42.724;23.298;2022-09-30T11:59:19;95325.09;;;29.70;35.19
7182;BME280;3632;42.724;23.298;2022-09-30T12:01:49;95319.44;;;29.33;35.83
7182;BME280;3632;42.724;23.298;2022-09-30T12:04:20;95329.13;;;29.04;36.73
7182;BME280;3632;42.724;23.298;2022-09-30T12:06:52;95255.75;;;28.57;36.89
7182;BME280;3632;42.724;23.298;2022-09-30T12:09:24;95320.25;;;28.93;37.40
7182;BME280;3632;42.724;23.298;2022-09-30T12:11:55;95324.63;;;28.65;37.45
7182;BME280;3632;42.724;23.298;2022-09-30T12:14:30;95341.19;;;28.30;38.49
7182;BME280;3632;42.724;23.298;2022-09-30T12:17:01;95337.31;;;28.21;38.42
7182;BME280;3632;42.724;23.298;2022-09-30T12:19:33;95336.28;;;28.10;39.77
7182;BME280;3632;42.724;23.298;2022-09-30T12:22:05;95341.94;;;27.96;39.99
7182;BME280;3632;42.724;23.298;2022-09-30T12:24:36;95335.78;;;28.02;39.52
7182;BME280;3632;42.724;23.298;2022-09-30T12:27:04;95317.25;;;28.15;38.03
7182;BME280;3632;42.724;23.298;2022-09-30T12:29:41;95319.28;;;28.59;37.11
7182;BME280;3632;42.724;23.298;2022-09-30T12:32:57;95328.38;;;29.20;36.48
7182;BME280;3632;42.724;23.298;2022-09-30T12:35:51;95265.06;;;28.88;36.34
7182;BME280;3632;42.724;23.298;2022-09-30T12:38:37;95319.38;;;29.73;35.34
7182;BME280;3632;42.724;23.298;2022-09-30T12:41:18;95342.63;;;30.31;35.05
7182;BME280;3632;42.724;23.298;2022-09-30T12:44:16;95342.69;;;30.91;35.45
7182;BME280;3632;42.724;23.298;2022-09-30T12:47:00;95342.34;;;31.04;33.92
7182;BME280;3632;42.724;23.298;2022-09-30T12:49:30;95342.31;;;30.27;35.11
7182;BME280;3632;42.724;23.298;2022-09-30T12:52:02;95338.41;;;30.13;35.40
7182;BME280;3632;42.724;23.298;2022-09-30T12:54:33;95340.34;;;30.73;35.09
7182;BME280;3632;42.724;23.298;2022-09-30T12:57:03;95329.03;;;31.38;33.50
7182;BME280;3632;42.724;23.298;2022-09-30T12:59:35;95338.69;;;32.12;32.42
7182;BME280;3632;42.724;23.298;2022-09-30T13:02:05;95332.13;;;32.57;31.14
7182;BME280;3632;42.724;23.298;2022-09-30T13:04:35;95314.97;;;33.12;30.21
7182;BME280;3632;42.724;23.298;2022-09-30T13:07:12;95334.19;;;33.94;29.29
7182;BME280;3632;42.724;23.298;2022-09-30T13:09:59;95344.19;;;34.68;28.47
7182;BME280;3632;42.724;23.298;2022-09-30T13:12:37;95329.97;;;33.99;27.89
7182;BME280;3632;42.724;23.298;2022-09-30T13:21:23;95317.00;;;35.66;26.49
7182;BME280;3632;42.724;23.298;2022-09-30T13:23:51;95319.84;;;36.42;25.98
7182;BME280;3632;42.724;23.298;2022-09-30T13:26:45;95328.97;;;36.31;25.45
7182;BME280;3632;42.724;23.298;2022-09-30T13:29:35;95330.31;;;35.56;26.60
7182;BME280;3632;42.724;23.298;2022-09-30T13:32:30;95327.53;;;34.48;27.69
7182;BME280;3632;42.724;23.298;2022-09-30T13:34:57;95334.13;;;34.75;27.43
7182;BME280;3632;42.724;23.298;2022-09-30T13:37:40;95336.03;;;34.39;28.30